BAW58E EHAM-EGLL
Flight info
| Callsign | BAW58E |
|---|---|
| Flight time | 0h 48m |
| Altitude | 24000 |
| Route | IDRID L980 LOGAN |
| Aircraft | A320/M-SDE3FGHIRWY/LB1 |
Departure
| Time | 2026-05-06 18:00 |
|---|---|
| Airport | Amsterdam Airport Schiphol (EHAM) |
Arrival
| Time | 2026-05-06 18:48 |
|---|---|
| Airport | London Heathrow Airport (EGLL) |
| Time | Latitude | Longitude | Altitude | Speed | Heading |
|---|---|---|---|---|---|
| 2026-05-06 17:16 | 52.30718 | 4.77026 | -1 ft | 0 kts | 3° |
| 2026-05-06 17:44 | 52.30716 | 4.77026 | -1 ft | 2 kts | 3° |
| 2026-05-06 17:44 | 52.30695 | 4.77024 | -1 ft | 1 kts | 355° |
| 2026-05-06 17:45 | 52.30693 | 4.77024 | -1 ft | 0 kts | 355° |
| 2026-05-06 17:46 | 52.30676 | 4.77029 | -1 ft | 3 kts | 317° |
| 2026-05-06 17:46 | 52.30662 | 4.77056 | -1 ft | 3 kts | 302° |
| 2026-05-06 17:46 | 52.30661 | 4.77060 | -1 ft | 0 kts | 303° |
| 2026-05-06 17:48 | 52.30661 | 4.77059 | -1 ft | 0 kts | 301° |
| 2026-05-06 17:48 | 52.30661 | 4.77058 | -1 ft | 0 kts | 295° |
| 2026-05-06 17:49 | 52.30660 | 4.77055 | -1 ft | 0 kts | 276° |
| 2026-05-06 17:49 | 52.30645 | 4.77029 | -1 ft | 5 kts | 206° |
| 2026-05-06 17:49 | 52.30594 | 4.77042 | -1 ft | 11 kts | 159° |
| 2026-05-06 17:49 | 52.30509 | 4.77069 | -1 ft | 15 kts | 216° |
| 2026-05-06 17:50 | 52.30473 | 4.76987 | -1 ft | 11 kts | 238° |
| 2026-05-06 17:50 | 52.30430 | 4.76875 | -1 ft | 12 kts | 238° |
| 2026-05-06 17:50 | 52.30396 | 4.76786 | -1 ft | 6 kts | 238° |
| 2026-05-06 17:50 | 52.30392 | 4.76775 | -1 ft | 0 kts | 238° |
| 2026-05-06 17:51 | 52.30392 | 4.76774 | -1 ft | 1 kts | 238° |
| 2026-05-06 17:51 | 52.30378 | 4.76738 | -1 ft | 8 kts | 238° |
| 2026-05-06 17:51 | 52.30333 | 4.76622 | -1 ft | 16 kts | 238° |
| 2026-05-06 17:52 | 52.30258 | 4.76426 | -1 ft | 24 kts | 239° |
| 2026-05-06 17:52 | 52.30161 | 4.76172 | -1 ft | 26 kts | 237° |
| 2026-05-06 17:52 | 52.30086 | 4.75976 | -1 ft | 20 kts | 237° |
| 2026-05-06 17:52 | 52.30010 | 4.75779 | -1 ft | 22 kts | 238° |
| 2026-05-06 17:53 | 52.29930 | 4.75571 | -1 ft | 16 kts | 238° |
| 2026-05-06 17:53 | 52.29879 | 4.75436 | -1 ft | 15 kts | 238° |
| 2026-05-06 17:53 | 52.29833 | 4.75262 | -1 ft | 20 kts | 271° |
| 2026-05-06 17:53 | 52.29899 | 4.75088 | -1 ft | 19 kts | 311° |
| 2026-05-06 17:54 | 52.29992 | 4.74917 | -1 ft | 21 kts | 311° |
| 2026-05-06 17:54 | 52.30096 | 4.74725 | 3 ft | 22 kts | 311° |
| 2026-05-06 17:54 | 52.30192 | 4.74545 | 10 ft | 22 kts | 311° |
| 2026-05-06 17:54 | 52.30299 | 4.74347 | 7 ft | 26 kts | 310° |
| 2026-05-06 17:55 | 52.30372 | 4.74161 | -1 ft | 8 kts | 274° |
| 2026-05-06 17:55 | 52.30371 | 4.74156 | -1 ft | 0 kts | 269° |
| 2026-05-06 17:55 | 52.30370 | 4.74144 | -1 ft | 3 kts | 262° |
| 2026-05-06 17:55 | 52.30350 | 4.74078 | -1 ft | 13 kts | 232° |
| 2026-05-06 17:56 | 52.30286 | 4.73992 | -1 ft | 6 kts | 216° |
| 2026-05-06 17:56 | 52.30273 | 4.73977 | -1 ft | 1 kts | 215° |
| 2026-05-06 17:56 | 52.30258 | 4.73959 | -1 ft | 4 kts | 215° |
| 2026-05-06 17:56 | 52.30224 | 4.73920 | -1 ft | 3 kts | 216° |
| 2026-05-06 17:57 | 52.30221 | 4.73916 | -1 ft | 2 kts | 216° |
| 2026-05-06 17:57 | 52.30194 | 4.73873 | -2 ft | 10 kts | 236° |
| 2026-05-06 17:57 | 52.30224 | 4.73746 | -3 ft | 16 kts | 339° |
| 2026-05-06 17:57 | 52.30272 | 4.73743 | -4 ft | 0 kts | 4° |
| 2026-05-06 17:58 | 52.30288 | 4.73745 | -4 ft | 5 kts | 4° |
| 2026-05-06 17:59 | 52.30333 | 4.73750 | -4 ft | 8 kts | 4° |
| 2026-05-06 17:59 | 52.30442 | 4.73761 | -3 ft | 39 kts | 3° |
| 2026-05-06 17:59 | 52.30960 | 4.73808 | -1 ft | 106 kts | 3° |
| 2026-05-06 17:59 | 52.31869 | 4.73891 | 17 ft | 152 kts | 2° |
| 2026-05-06 18:00 | 52.32897 | 4.73953 | 718 ft | 145 kts | 1° |
| 2026-05-06 18:00 | 52.33893 | 4.73594 | 1459 ft | 149 kts | 346° |
| 2026-05-06 18:00 | 52.34867 | 4.73029 | 2151 ft | 149 kts | 345° |
| 2026-05-06 18:00 | 52.35785 | 4.72217 | 2760 ft | 155 kts | 320° |
| 2026-05-06 18:01 | 52.36254 | 4.70603 | 3334 ft | 166 kts | 273° |
| 2026-05-06 18:01 | 52.35937 | 4.68779 | 3915 ft | 170 kts | 245° |
| 2026-05-06 18:01 | 52.35393 | 4.66970 | 4318 ft | 188 kts | 245° |
| 2026-05-06 18:01 | 52.34781 | 4.64945 | 4622 ft | 210 kts | 245° |
| 2026-05-06 18:02 | 52.34102 | 4.62689 | 4916 ft | 232 kts | 244° |
| 2026-05-06 18:02 | 52.33353 | 4.60192 | 5240 ft | 257 kts | 245° |
| 2026-05-06 18:02 | 52.32542 | 4.57491 | 5796 ft | 276 kts | 245° |
| 2026-05-06 18:02 | 52.31685 | 4.54642 | 6716 ft | 281 kts | 245° |
| 2026-05-06 18:03 | 52.30820 | 4.51763 | 7659 ft | 283 kts | 245° |
| 2026-05-06 18:03 | 52.29951 | 4.48864 | 8623 ft | 285 kts | 245° |
| 2026-05-06 18:03 | 52.29065 | 4.45936 | 9572 ft | 288 kts | 245° |
| 2026-05-06 18:03 | 52.28133 | 4.43032 | 10452 ft | 290 kts | 244° |
| 2026-05-06 18:04 | 52.27166 | 4.40130 | 11310 ft | 292 kts | 243° |
| 2026-05-06 18:04 | 52.26183 | 4.37224 | 12169 ft | 293 kts | 243° |
| 2026-05-06 18:04 | 52.25186 | 4.34289 | 12745 ft | 297 kts | 243° |
| 2026-05-06 18:04 | 52.24185 | 4.31346 | 12902 ft | 296 kts | 243° |
| 2026-05-06 18:05 | 52.23187 | 4.28407 | 12930 ft | 295 kts | 243° |
| 2026-05-06 18:05 | 52.22199 | 4.25484 | 12933 ft | 294 kts | 243° |
| 2026-05-06 18:05 | 52.21211 | 4.22555 | 12934 ft | 295 kts | 243° |
| 2026-05-06 18:05 | 52.20219 | 4.19619 | 12929 ft | 296 kts | 243° |
| 2026-05-06 18:06 | 52.19224 | 4.16677 | 12930 ft | 296 kts | 243° |
| 2026-05-06 18:06 | 52.18229 | 4.13737 | 12931 ft | 296 kts | 243° |
| 2026-05-06 18:06 | 52.17234 | 4.10803 | 12933 ft | 295 kts | 243° |
| 2026-05-06 18:06 | 52.16239 | 4.07865 | 12936 ft | 296 kts | 243° |
| 2026-05-06 18:07 | 52.15243 | 4.04930 | 12938 ft | 297 kts | 243° |
| 2026-05-06 18:07 | 52.14240 | 4.01988 | 12941 ft | 297 kts | 243° |
| 2026-05-06 18:07 | 52.13239 | 3.99045 | 12945 ft | 297 kts | 243° |
| 2026-05-06 18:07 | 52.12236 | 3.96099 | 12950 ft | 297 kts | 243° |
| 2026-05-06 18:08 | 52.11236 | 3.93157 | 12947 ft | 297 kts | 243° |
| 2026-05-06 18:08 | 52.10235 | 3.90207 | 12949 ft | 297 kts | 243° |
| 2026-05-06 18:08 | 52.09237 | 3.87267 | 12958 ft | 297 kts | 243° |
| 2026-05-06 18:08 | 52.08234 | 3.84332 | 12956 ft | 297 kts | 243° |
| 2026-05-06 18:09 | 52.07238 | 3.81438 | 12962 ft | 296 kts | 243° |
| 2026-05-06 18:09 | 52.06232 | 3.78518 | 12961 ft | 296 kts | 243° |
| 2026-05-06 18:09 | 52.05227 | 3.75598 | 12960 ft | 296 kts | 242° |
| 2026-05-06 18:09 | 52.04223 | 3.72678 | 12961 ft | 296 kts | 243° |
| 2026-05-06 18:10 | 52.03216 | 3.69752 | 12955 ft | 296 kts | 243° |
| 2026-05-06 18:10 | 52.02212 | 3.66833 | 12959 ft | 296 kts | 243° |
| 2026-05-06 18:10 | 52.01207 | 3.63919 | 12958 ft | 296 kts | 243° |
| 2026-05-06 18:10 | 52.00200 | 3.61007 | 12958 ft | 296 kts | 242° |
| 2026-05-06 18:11 | 51.99191 | 3.58095 | 12954 ft | 296 kts | 243° |
| 2026-05-06 18:11 | 51.98179 | 3.55182 | 12949 ft | 296 kts | 243° |
| 2026-05-06 18:11 | 51.97165 | 3.52258 | 13351 ft | 298 kts | 243° |
| 2026-05-06 18:11 | 51.96134 | 3.49286 | 13919 ft | 311 kts | 243° |
| 2026-05-06 18:12 | 51.95034 | 3.46109 | 14074 ft | 334 kts | 242° |
| 2026-05-06 18:12 | 51.93857 | 3.42713 | 14207 ft | 356 kts | 243° |
| 2026-05-06 18:12 | 51.92619 | 3.39152 | 14619 ft | 367 kts | 242° |
| 2026-05-06 18:12 | 51.91352 | 3.35529 | 15195 ft | 371 kts | 242° |
| 2026-05-06 18:13 | 51.90075 | 3.31889 | 15816 ft | 374 kts | 242° |
| 2026-05-06 18:13 | 51.88779 | 3.28205 | 16451 ft | 376 kts | 242° |
| 2026-05-06 18:13 | 51.87481 | 3.24517 | 17165 ft | 377 kts | 242° |
| 2026-05-06 18:13 | 51.86192 | 3.20807 | 17803 ft | 380 kts | 244° |
| 2026-05-06 18:14 | 51.85179 | 3.16853 | 18379 ft | 383 kts | 253° |
| 2026-05-06 18:14 | 51.84619 | 3.12640 | 18940 ft | 385 kts | 263° |
| 2026-05-06 18:14 | 51.84347 | 3.08324 | 19563 ft | 385 kts | 264° |
| 2026-05-06 18:14 | 51.84077 | 3.04002 | 20133 ft | 389 kts | 264° |
| 2026-05-06 18:15 | 51.83797 | 2.99632 | 20640 ft | 393 kts | 264° |
| 2026-05-06 18:15 | 51.83509 | 2.95216 | 21112 ft | 397 kts | 263° |
| 2026-05-06 18:15 | 51.83219 | 2.90829 | 21639 ft | 399 kts | 263° |
| 2026-05-06 18:15 | 51.82918 | 2.86355 | 22127 ft | 402 kts | 263° |
| 2026-05-06 18:16 | 51.82610 | 2.81838 | 22560 ft | 406 kts | 263° |
| 2026-05-06 18:16 | 51.82299 | 2.77272 | 22985 ft | 411 kts | 263° |
| 2026-05-06 18:16 | 51.81984 | 2.72671 | 23468 ft | 413 kts | 263° |
| 2026-05-06 18:16 | 51.81671 | 2.68050 | 23839 ft | 415 kts | 263° |
| 2026-05-06 18:17 | 51.81358 | 2.63412 | 23945 ft | 415 kts | 263° |
| 2026-05-06 18:17 | 51.81042 | 2.58779 | 23964 ft | 415 kts | 263° |
| 2026-05-06 18:17 | 51.80721 | 2.54144 | 23964 ft | 415 kts | 263° |
| 2026-05-06 18:17 | 51.80397 | 2.49513 | 23970 ft | 414 kts | 263° |
| 2026-05-06 18:18 | 51.80073 | 2.44894 | 23969 ft | 414 kts | 263° |
| 2026-05-06 18:18 | 51.79748 | 2.40258 | 23972 ft | 415 kts | 263° |
| 2026-05-06 18:18 | 51.79421 | 2.35628 | 23969 ft | 415 kts | 263° |
| 2026-05-06 18:18 | 51.79089 | 2.30999 | 23973 ft | 415 kts | 263° |
| 2026-05-06 18:19 | 51.78755 | 2.26369 | 23972 ft | 415 kts | 263° |
| 2026-05-06 18:19 | 51.78419 | 2.21738 | 23960 ft | 415 kts | 263° |
| 2026-05-06 18:19 | 51.78107 | 2.17096 | 23953 ft | 416 kts | 264° |
| 2026-05-06 18:19 | 51.77829 | 2.12447 | 23956 ft | 416 kts | 264° |
| 2026-05-06 18:20 | 51.77570 | 2.07798 | 23960 ft | 416 kts | 265° |
| 2026-05-06 18:20 | 51.77315 | 2.03148 | 23960 ft | 416 kts | 265° |
| 2026-05-06 18:20 | 51.77060 | 1.98556 | 23958 ft | 416 kts | 264° |
| 2026-05-06 18:20 | 51.76794 | 1.93905 | 23961 ft | 416 kts | 264° |
| 2026-05-06 18:21 | 51.76516 | 1.89238 | 23964 ft | 416 kts | 264° |
| 2026-05-06 18:21 | 51.76229 | 1.84576 | 23964 ft | 416 kts | 264° |
| 2026-05-06 18:21 | 51.75939 | 1.79932 | 23964 ft | 417 kts | 264° |
| 2026-05-06 18:21 | 51.75647 | 1.75276 | 23964 ft | 417 kts | 264° |
| 2026-05-06 18:22 | 51.75354 | 1.70621 | 23969 ft | 417 kts | 264° |
| 2026-05-06 18:22 | 51.75058 | 1.65969 | 23968 ft | 417 kts | 264° |
| 2026-05-06 18:22 | 51.74762 | 1.61313 | 23971 ft | 417 kts | 264° |
| 2026-05-06 18:22 | 51.74468 | 1.56662 | 23971 ft | 413 kts | 264° |
| 2026-05-06 18:23 | 51.74180 | 1.52120 | 23984 ft | 404 kts | 264° |
| 2026-05-06 18:23 | 51.73894 | 1.47619 | 23912 ft | 404 kts | 264° |
| 2026-05-06 18:23 | 51.73605 | 1.43124 | 23557 ft | 401 kts | 264° |
| 2026-05-06 18:23 | 51.73315 | 1.38659 | 23142 ft | 398 kts | 264° |
| 2026-05-06 18:24 | 51.73027 | 1.34234 | 22730 ft | 396 kts | 264° |
| 2026-05-06 18:24 | 51.72739 | 1.29821 | 22320 ft | 393 kts | 264° |
| 2026-05-06 18:24 | 51.72451 | 1.25450 | 21917 ft | 391 kts | 264° |
| 2026-05-06 18:24 | 51.72162 | 1.21106 | 21519 ft | 388 kts | 264° |
| 2026-05-06 18:25 | 51.71873 | 1.16787 | 21126 ft | 386 kts | 264° |
| 2026-05-06 18:25 | 51.71584 | 1.12494 | 20739 ft | 384 kts | 264° |
| 2026-05-06 18:25 | 51.71295 | 1.08224 | 20355 ft | 380 kts | 264° |
| 2026-05-06 18:25 | 51.71009 | 1.04040 | 19737 ft | 370 kts | 264° |
| 2026-05-06 18:26 | 51.70730 | 1.00032 | 19475 ft | 346 kts | 264° |
| 2026-05-06 18:26 | 51.70472 | 0.96318 | 19262 ft | 324 kts | 264° |
| 2026-05-06 18:26 | 51.70230 | 0.92762 | 18721 ft | 316 kts | 264° |
| 2026-05-06 18:26 | 51.69992 | 0.89264 | 18060 ft | 313 kts | 264° |
| 2026-05-06 18:27 | 51.69751 | 0.85794 | 17346 ft | 310 kts | 264° |
| 2026-05-06 18:27 | 51.69512 | 0.82410 | 16665 ft | 307 kts | 264° |
| 2026-05-06 18:27 | 51.69266 | 0.78964 | 15989 ft | 304 kts | 264° |
| 2026-05-06 18:27 | 51.69025 | 0.75595 | 15341 ft | 301 kts | 264° |
| 2026-05-06 18:28 | 51.68787 | 0.72258 | 14709 ft | 299 kts | 265° |
| 2026-05-06 18:28 | 51.68556 | 0.68992 | 14100 ft | 296 kts | 265° |
| 2026-05-06 18:28 | 51.68324 | 0.65702 | 13453 ft | 294 kts | 265° |
| 2026-05-06 18:28 | 51.68093 | 0.62445 | 12788 ft | 291 kts | 265° |
| 2026-05-06 18:29 | 51.67862 | 0.59222 | 12146 ft | 288 kts | 264° |
| 2026-05-06 18:29 | 51.67631 | 0.56032 | 11512 ft | 286 kts | 264° |
| 2026-05-06 18:29 | 51.67401 | 0.52858 | 10906 ft | 283 kts | 264° |
| 2026-05-06 18:29 | 51.67173 | 0.49728 | 10312 ft | 280 kts | 264° |
| 2026-05-06 18:30 | 51.66947 | 0.46631 | 10035 ft | 274 kts | 265° |
| 2026-05-06 18:30 | 51.66732 | 0.43702 | 9990 ft | 252 kts | 265° |
| 2026-05-06 18:30 | 51.66526 | 0.40925 | 10000 ft | 250 kts | 265° |
| 2026-05-06 18:30 | 51.66323 | 0.38159 | 10001 ft | 248 kts | 265° |
| 2026-05-06 18:31 | 51.66122 | 0.35433 | 9986 ft | 248 kts | 264° |
| 2026-05-06 18:31 | 51.65942 | 0.32631 | 9519 ft | 254 kts | 266° |
| 2026-05-06 18:31 | 51.65783 | 0.29855 | 9175 ft | 245 kts | 266° |
| 2026-05-06 18:31 | 51.65629 | 0.27138 | 8989 ft | 243 kts | 266° |
| 2026-05-06 18:32 | 51.65484 | 0.24411 | 9000 ft | 245 kts | 266° |
| 2026-05-06 18:32 | 51.65332 | 0.21682 | 8999 ft | 245 kts | 266° |
| 2026-05-06 18:32 | 51.65183 | 0.18943 | 9004 ft | 245 kts | 266° |
| 2026-05-06 18:32 | 51.65036 | 0.16210 | 9003 ft | 246 kts | 266° |
| 2026-05-06 18:33 | 51.64890 | 0.13474 | 9003 ft | 245 kts | 266° |
| 2026-05-06 18:33 | 51.64742 | 0.10733 | 9001 ft | 246 kts | 266° |
| 2026-05-06 18:33 | 51.64598 | 0.07983 | 9002 ft | 247 kts | 266° |
| 2026-05-06 18:33 | 51.64459 | 0.05232 | 9004 ft | 247 kts | 266° |
| 2026-05-06 18:34 | 51.64313 | 0.02521 | 9002 ft | 245 kts | 266° |
| 2026-05-06 18:34 | 51.64165 | -0.00220 | 9041 ft | 246 kts | 266° |
| 2026-05-06 18:34 | 51.64012 | -0.02958 | 9041 ft | 245 kts | 266° |
| 2026-05-06 18:34 | 51.63854 | -0.05397 | 9045 ft | 245 kts | 266° |
| 2026-05-06 18:35 | 51.63675 | -0.08116 | 8902 ft | 243 kts | 266° |
| 2026-05-06 18:35 | 51.63503 | -0.10829 | 8594 ft | 243 kts | 266° |
| 2026-05-06 18:35 | 51.63329 | -0.13527 | 8294 ft | 242 kts | 266° |
| 2026-05-06 18:35 | 51.63160 | -0.16209 | 8056 ft | 241 kts | 266° |
| 2026-05-06 18:36 | 51.63050 | -0.17988 | 8052 ft | 241 kts | 266° |
| 2026-05-06 18:36 | 51.62880 | -0.20685 | 8056 ft | 243 kts | 266° |
| 2026-05-06 18:36 | 51.62709 | -0.23384 | 8056 ft | 242 kts | 266° |
| 2026-05-06 18:36 | 51.62536 | -0.26086 | 8060 ft | 243 kts | 266° |
| 2026-05-06 18:37 | 51.62363 | -0.28794 | 8060 ft | 242 kts | 266° |
| 2026-05-06 18:37 | 51.62185 | -0.31486 | 8059 ft | 242 kts | 266° |
| 2026-05-06 18:37 | 51.62000 | -0.34173 | 8003 ft | 242 kts | 265° |
| 2026-05-06 18:37 | 51.61828 | -0.36874 | 8001 ft | 243 kts | 266° |
| 2026-05-06 18:38 | 51.61653 | -0.39575 | 8004 ft | 242 kts | 266° |
| 2026-05-06 18:38 | 51.61483 | -0.42229 | 7909 ft | 240 kts | 266° |
| 2026-05-06 18:38 | 51.61325 | -0.44909 | 7570 ft | 241 kts | 266° |
| 2026-05-06 18:38 | 51.61163 | -0.47583 | 7260 ft | 240 kts | 266° |
| 2026-05-06 18:39 | 51.60992 | -0.50242 | 7030 ft | 238 kts | 265° |
| 2026-05-06 18:39 | 51.60828 | -0.52897 | 6991 ft | 240 kts | 266° |
| 2026-05-06 18:39 | 51.60657 | -0.55576 | 6997 ft | 240 kts | 266° |
| 2026-05-06 18:40 | 51.60306 | -0.60908 | 7002 ft | 240 kts | 265° |
| 2026-05-06 18:40 | 51.59927 | -0.63511 | 6889 ft | 239 kts | 250° |
| 2026-05-06 18:40 | 51.59248 | -0.65959 | 6563 ft | 240 kts | 246° |
| 2026-05-06 18:40 | 51.58536 | -0.68388 | 6266 ft | 239 kts | 246° |
| 2026-05-06 18:41 | 51.57836 | -0.70770 | 5956 ft | 238 kts | 246° |
| 2026-05-06 18:41 | 51.57121 | -0.73168 | 5650 ft | 238 kts | 246° |
| 2026-05-06 18:41 | 51.56404 | -0.75540 | 5472 ft | 232 kts | 246° |
| 2026-05-06 18:41 | 51.55698 | -0.77794 | 5330 ft | 218 kts | 246° |
| 2026-05-06 18:42 | 51.55039 | -0.79890 | 5207 ft | 201 kts | 242° |
| 2026-05-06 18:42 | 51.54072 | -0.81393 | 4874 ft | 196 kts | 206° |
| 2026-05-06 18:42 | 51.52742 | -0.81810 | 4406 ft | 195 kts | 184° |
| 2026-05-06 18:42 | 51.51390 | -0.81771 | 4020 ft | 193 kts | 165° |
| 2026-05-06 18:43 | 51.50223 | -0.80709 | 4016 ft | 196 kts | 140° |
| 2026-05-06 18:43 | 51.49188 | -0.79280 | 4012 ft | 196 kts | 136° |
| 2026-05-06 18:43 | 51.48235 | -0.77724 | 3856 ft | 195 kts | 123° |
| 2026-05-06 18:43 | 51.47694 | -0.75804 | 3515 ft | 183 kts | 99° |
| 2026-05-06 18:44 | 51.47614 | -0.73844 | 3266 ft | 172 kts | 85° |
| 2026-05-06 18:44 | 51.47627 | -0.71962 | 3031 ft | 167 kts | 86° |
| 2026-05-06 18:44 | 51.47639 | -0.70115 | 2821 ft | 165 kts | 86° |
| 2026-05-06 18:44 | 51.47650 | -0.68286 | 2582 ft | 163 kts | 86° |
| 2026-05-06 18:45 | 51.47661 | -0.66486 | 2355 ft | 163 kts | 86° |
| 2026-05-06 18:45 | 51.47671 | -0.64676 | 2128 ft | 162 kts | 85° |
| 2026-05-06 18:45 | 51.47681 | -0.62874 | 1909 ft | 162 kts | 86° |
| 2026-05-06 18:45 | 51.47690 | -0.61064 | 1685 ft | 162 kts | 86° |
| 2026-05-06 18:46 | 51.47698 | -0.59297 | 1453 ft | 150 kts | 86° |
| 2026-05-06 18:46 | 51.47705 | -0.57689 | 1257 ft | 140 kts | 86° |
| 2026-05-06 18:46 | 51.47707 | -0.56150 | 1068 ft | 136 kts | 86° |
| 2026-05-06 18:46 | 51.47711 | -0.54643 | 888 ft | 134 kts | 85° |
| 2026-05-06 18:47 | 51.47723 | -0.53145 | 702 ft | 133 kts | 85° |
| 2026-05-06 18:47 | 51.47729 | -0.51661 | 508 ft | 132 kts | 86° |
| 2026-05-06 18:47 | 51.47738 | -0.50192 | 352 ft | 131 kts | 85° |
| 2026-05-06 18:47 | 51.47748 | -0.48739 | 165 ft | 130 kts | 86° |
| 2026-05-06 18:48 | 51.47754 | -0.47352 | 87 ft | 114 kts | 88° |
| 2026-05-06 18:48 | 51.47758 | -0.46498 | 91 ft | 32 kts | 90° |
| 2026-05-06 18:48 | 51.47758 | -0.46308 | 91 ft | 20 kts | 90° |
| 2026-05-06 18:48 | 51.47684 | -0.46123 | 87 ft | 23 kts | 145° |
| 2026-05-06 18:49 | 51.47595 | -0.46124 | 87 ft | 11 kts | 254° |
| 2026-05-06 18:49 | 51.47594 | -0.46253 | 86 ft | 13 kts | 269° |
| 2026-05-06 18:49 | 51.47593 | -0.46406 | 86 ft | 14 kts | 269° |
| 2026-05-06 18:49 | 51.47593 | -0.46575 | 86 ft | 17 kts | 269° |
| 2026-05-06 18:50 | 51.47592 | -0.46772 | 86 ft | 15 kts | 269° |
| 2026-05-06 18:50 | 51.47583 | -0.46956 | 89 ft | 18 kts | 269° |
| 2026-05-06 18:50 | 51.47582 | -0.47152 | 90 ft | 17 kts | 269° |
| 2026-05-06 18:50 | 51.47582 | -0.47286 | 88 ft | 10 kts | 269° |
| 2026-05-06 18:51 | 51.47581 | -0.47412 | 89 ft | 12 kts | 270° |
| 2026-05-06 18:51 | 51.47581 | -0.47562 | 90 ft | 15 kts | 269° |
| 2026-05-06 18:51 | 51.47580 | -0.47687 | 90 ft | 11 kts | 270° |
| 2026-05-06 18:51 | 51.47580 | -0.47808 | 87 ft | 10 kts | 269° |
| 2026-05-06 18:52 | 51.47580 | -0.47816 | 88 ft | 0 kts | 268° |
| 2026-05-06 18:52 | 51.47580 | -0.47827 | 90 ft | 2 kts | 269° |
| 2026-05-06 18:52 | 51.47580 | -0.47871 | 90 ft | 5 kts | 269° |
| 2026-05-06 18:52 | 51.47579 | -0.47942 | 90 ft | 8 kts | 270° |
| 2026-05-06 18:53 | 51.47579 | -0.48051 | 88 ft | 11 kts | 269° |
| 2026-05-06 18:53 | 51.47579 | -0.48195 | 89 ft | 14 kts | 270° |
| 2026-05-06 18:53 | 51.47578 | -0.48356 | 87 ft | 15 kts | 270° |
| 2026-05-06 18:53 | 51.47529 | -0.48475 | 88 ft | 15 kts | 185° |
| 2026-05-06 18:54 | 51.47422 | -0.48475 | 86 ft | 16 kts | 180° |
| 2026-05-06 18:54 | 51.47305 | -0.48474 | 86 ft | 17 kts | 180° |
| 2026-05-06 18:54 | 51.47181 | -0.48473 | 86 ft | 19 kts | 180° |
| 2026-05-06 18:54 | 51.47047 | -0.48472 | 86 ft | 20 kts | 179° |
| 2026-05-06 18:55 | 51.46907 | -0.48473 | 89 ft | 15 kts | 191° |
| 2026-05-06 18:55 | 51.46890 | -0.48567 | 86 ft | 7 kts | 325° |
| 2026-05-06 18:55 | 51.46924 | -0.48573 | 86 ft | 2 kts | 360° |
| 2026-05-06 18:55 | 51.46931 | -0.48573 | 86 ft | 1 kts | 360° |